createdAt,value
2023-05-07T00:00:16.452Z,102018.47
2023-05-07T00:02:45.778Z,102023.59
2023-05-07T00:05:15.706Z,102024.75
2023-05-07T00:07:45.050Z,102032.38
2023-05-07T00:10:14.410Z,102023.50
2023-05-07T00:12:43.773Z,102020.88
2023-05-07T00:15:14.380Z,102024.16
2023-05-07T00:17:43.595Z,102021.63
2023-05-07T00:20:13.811Z,102014.53
2023-05-07T00:22:43.001Z,102010.34
2023-05-07T00:25:12.299Z,102014.47
2023-05-07T00:27:41.382Z,102010.28
2023-05-07T00:30:11.643Z,102016.13
2023-05-07T00:32:42.432Z,102014.34
2023-05-07T00:35:12.043Z,102013.69
2023-05-07T00:37:41.473Z,102019.78
2023-05-07T00:40:11.453Z,102019.00
2023-05-07T00:42:40.795Z,102009.03
2023-05-07T00:45:11.780Z,102012.84
2023-05-07T00:47:42.756Z,102005.28
2023-05-07T00:50:13.675Z,102005.28
2023-05-07T00:52:43.621Z,102010.41
2023-05-07T00:55:14.050Z,102010.50
2023-05-07T00:57:44.009Z,102005.19
2023-05-07T01:00:14.640Z,102008.84
2023-05-07T01:02:46.106Z,102010.69
2023-05-07T01:05:18.502Z,102009.94
2023-05-07T01:07:49.327Z,102013.69
2023-05-07T01:10:19.280Z,102008.25
2023-05-07T01:12:50.551Z,102007.44
2023-05-07T01:15:20.317Z,102008.84
2023-05-07T01:17:50.937Z,102008.91
2023-05-07T01:20:30.650Z,102011.28
2023-05-07T01:23:02.731Z,102011.72
2023-05-07T01:25:32.493Z,102009.94
2023-05-07T01:28:03.604Z,102011.13
2023-05-07T01:30:38.133Z,102010.22
2023-05-07T01:33:15.322Z,102010.94
2023-05-07T01:35:47.381Z,102010.53
2023-05-07T01:38:18.266Z,102010.03
2023-05-07T01:40:47.705Z,102011.97
2023-05-07T01:43:16.967Z,102011.22
2023-05-07T01:45:46.848Z,102013.34
2023-05-07T01:48:17.220Z,102005.69
2023-05-07T01:50:47.039Z,102003.47
2023-05-07T01:53:17.710Z,102005.31
2023-05-07T01:55:46.902Z,102008.47
2023-05-07T01:58:16.094Z,102002.69
2023-05-07T02:00:45.234Z,102009.25
2023-05-07T02:03:14.474Z,101995.13
2023-05-07T02:05:55.105Z,102000.00
2023-05-07T02:08:32.920Z,102009.00
2023-05-07T02:11:02.764Z,102015.28
2023-05-07T02:13:36.726Z,102017.84
2023-05-07T02:16:06.961Z,102027.44
2023-05-07T02:18:36.723Z,102023.53
2023-05-07T02:21:05.978Z,102022.50
2023-05-07T02:23:36.698Z,102014.66
2023-05-07T02:26:06.828Z,102018.75
2023-05-07T02:28:36.811Z,102017.66
2023-05-07T02:31:07.831Z,102026.69
2023-05-07T02:33:37.802Z,102030.72
2023-05-07T02:36:10.476Z,102031.97
2023-05-07T02:38:47.134Z,102033.56
2023-05-07T02:41:16.309Z,102032.91
2023-05-07T02:43:45.406Z,102028.69
2023-05-07T02:46:15.082Z,102027.19
2023-05-07T02:48:48.968Z,102037.47
2023-05-07T02:51:19.789Z,102038.13
2023-05-07T02:53:50.435Z,102047.59
2023-05-07T02:56:19.520Z,102044.81
2023-05-07T02:58:48.642Z,102049.34
2023-05-07T03:01:18.863Z,102048.19
2023-05-07T03:04:00.770Z,102047.72
2023-05-07T03:06:29.936Z,102041.78
2023-05-07T03:09:00.465Z,102039.09
2023-05-07T03:11:29.763Z,102036.41
2023-05-07T03:13:58.998Z,102039.09
2023-05-07T03:16:28.453Z,102046.94
2023-05-07T03:18:57.671Z,102034.53
2023-05-07T03:21:27.424Z,102037.81
2023-05-07T03:23:56.987Z,102031.91
2023-05-07T03:26:27.555Z,102037.81
2023-05-07T03:28:57.205Z,102038.16
2023-05-07T03:31:26.379Z,102041.38
2023-05-07T03:33:57.695Z,102043.63
2023-05-07T03:36:27.700Z,102044.00
2023-05-07T03:38:57.844Z,102046.75
2023-05-07T03:41:31.636Z,102041.25
2023-05-07T03:44:00.678Z,102050.03
2023-05-07T03:46:29.894Z,102044.72
2023-05-07T03:48:59.115Z,102036.97
2023-05-07T03:51:28.455Z,102036.19
2023-05-07T03:53:58.112Z,102036.97
2023-05-07T03:56:29.713Z,102030.72
2023-05-07T03:59:00.451Z,102036.81
2023-05-07T04:01:29.615Z,102046.91
2023-05-07T04:03:59.739Z,102046.56
2023-05-07T04:06:29.642Z,102049.34
2023-05-07T04:08:58.764Z,102047.69
2023-05-07T04:11:28.297Z,102055.59
2023-05-07T04:13:59.405Z,102056.34
2023-05-07T04:16:28.623Z,102055.94
2023-05-07T04:18:57.736Z,102058.81
2023-05-07T04:21:27.433Z,102063.25
2023-05-07T04:23:58.276Z,102056.34
2023-05-07T04:26:27.424Z,102066.13
2023-05-07T04:28:58.678Z,102054.97
2023-05-07T04:31:28.059Z,102053.97
2023-05-07T04:33:58.009Z,102056.84
2023-05-07T04:36:28.506Z,102061.50
2023-05-07T04:39:02.540Z,102055.16
2023-05-07T04:41:31.684Z,102063.25
2023-05-07T04:44:02.724Z,102067.38
2023-05-07T04:46:33.722Z,102068.06
2023-05-07T04:49:02.997Z,102054.72
2023-05-07T04:51:33.799Z,102068.31
2023-05-07T04:54:03.188Z,102063.34
2023-05-07T04:56:33.650Z,102070.78
2023-05-07T04:59:05.091Z,102068.81
2023-05-07T05:01:34.254Z,102062.56
2023-05-07T05:04:03.577Z,102062.56
2023-05-07T05:06:33.163Z,102078.19
2023-05-07T05:09:05.848Z,102082.56
2023-05-07T05:11:36.089Z,102074.34
2023-05-07T05:14:06.595Z,102077.47
2023-05-07T05:16:35.892Z,102078.81
2023-05-07T05:19:05.321Z,102077.03
2023-05-07T05:21:37.467Z,102074.28
2023-05-07T05:24:10.739Z,102072.91
2023-05-07T05:26:39.930Z,102085.53
2023-05-07T05:29:11.249Z,102080.22
2023-05-07T05:31:43.578Z,102084.09
2023-05-07T05:34:13.331Z,102083.50
2023-05-07T05:36:43.229Z,102085.47
2023-05-07T05:39:12.405Z,102083.50
2023-05-07T05:41:41.526Z,102080.03
2023-05-07T05:44:12.488Z,102089.28
2023-05-07T05:46:43.200Z,102075.66
2023-05-07T05:49:12.318Z,102086.19
2023-05-07T05:51:42.513Z,102080.69
2023-05-07T05:54:11.699Z,102096.09
2023-05-07T05:56:40.904Z,102094.97
2023-05-07T05:59:12.140Z,102097.25
2023-05-07T06:01:41.872Z,102097.19
2023-05-07T06:04:11.026Z,102102.22
2023-05-07T06:06:40.137Z,102095.50
2023-05-07T06:09:09.481Z,102086.91
2023-05-07T06:11:43.497Z,102088.22
2023-05-07T06:14:15.249Z,102096.81
2023-05-07T06:16:44.467Z,102090.56
2023-05-07T06:19:13.712Z,102099.09
2023-05-07T06:21:43.876Z,102091.03
2023-05-07T06:24:13.256Z,102093.38
2023-05-07T06:26:42.665Z,102092.81
2023-05-07T06:29:11.813Z,102100.13
2023-05-07T06:31:44.669Z,102088.53
2023-05-07T06:34:16.036Z,102095.81
2023-05-07T06:36:45.727Z,102107.78
2023-05-07T06:39:24.621Z,102099.84
2023-05-07T06:41:54.630Z,102091.72
2023-05-07T06:44:30.723Z,102092.84
2023-05-07T06:47:21.258Z,102105.38
2023-05-07T06:49:54.273Z,102102.94
2023-05-07T06:52:27.112Z,102086.19
2023-05-07T06:54:57.623Z,102094.31
2023-05-07T06:57:28.280Z,102085.44
2023-05-07T06:59:57.457Z,102097.69
2023-05-07T07:02:27.989Z,102094.97
2023-05-07T07:04:57.665Z,102096.56
2023-05-07T07:07:27.156Z,102105.75
2023-05-07T07:09:56.450Z,102096.88
2023-05-07T07:12:26.942Z,102089.94
2023-05-07T07:14:56.439Z,102098.03
2023-05-07T07:17:27.275Z,102096.25
2023-05-07T07:19:57.857Z,102096.84
2023-05-07T07:22:27.010Z,102093.19
2023-05-07T07:24:56.389Z,102102.00
2023-05-07T07:27:26.457Z,102107.59
2023-05-07T07:29:55.624Z,102094.69
2023-05-07T07:32:24.840Z,102096.94
2023-05-07T07:34:55.645Z,102092.22
2023-05-07T07:37:26.428Z,102091.94
2023-05-07T07:39:56.889Z,102088.31
2023-05-07T07:42:26.257Z,102092.34
2023-05-07T07:44:55.984Z,102093.59
2023-05-07T07:47:26.449Z,102092.47
2023-05-07T07:49:57.889Z,102089.81
2023-05-07T07:52:27.078Z,102103.19
2023-05-07T07:54:56.305Z,102102.22
2023-05-07T07:57:25.965Z,102108.63
2023-05-07T07:59:55.181Z,102111.28
2023-05-07T08:02:24.338Z,102113.97
2023-05-07T08:04:53.712Z,102111.88
2023-05-07T08:07:24.282Z,102119.69
2023-05-07T08:09:53.544Z,102115.22
2023-05-07T08:12:25.677Z,102112.56
2023-05-07T08:14:54.914Z,102119.28
2023-05-07T08:17:24.420Z,102122.69
2023-05-07T08:19:53.922Z,102119.06
2023-05-07T08:22:24.352Z,102122.75
2023-05-07T08:24:54.614Z,102111.88
2023-05-07T08:27:23.837Z,102119.41
2023-05-07T08:29:53.422Z,102119.34
2023-05-07T08:32:24.200Z,102117.25
2023-05-07T08:34:53.384Z,102107.97
2023-05-07T08:37:24.002Z,102119.19
2023-05-07T08:39:53.366Z,102124.97
2023-05-07T08:42:26.858Z,102116.53
2023-05-07T08:45:02.148Z,102126.44
2023-05-07T08:47:37.080Z,102129.44
2023-05-07T08:50:08.753Z,102132.63
2023-05-07T08:52:40.847Z,102135.44
2023-05-07T08:55:12.058Z,102136.69
2023-05-07T08:57:41.469Z,102142.75
2023-05-07T09:00:13.670Z,102140.88
2023-05-07T09:02:44.513Z,102150.44
2023-05-07T09:05:13.930Z,102142.13
2023-05-07T09:07:44.572Z,102150.25
2023-05-07T09:10:16.397Z,102150.66
2023-05-07T09:12:49.790Z,102143.63
2023-05-07T09:15:20.789Z,102151.78
2023-05-07T09:17:50.199Z,102150.41
2023-05-07T09:20:19.342Z,102150.66
2023-05-07T09:22:52.464Z,102149.00
2023-05-07T09:25:31.081Z,102154.88
2023-05-07T09:28:03.034Z,102152.91
2023-05-07T09:30:32.801Z,102160.50
2023-05-07T09:33:05.689Z,102163.38
2023-05-07T09:35:36.970Z,102161.09
2023-05-07T09:38:12.759Z,102150.25
2023-05-07T09:40:42.148Z,102148.16
2023-05-07T09:43:16.592Z,102160.44
2023-05-07T09:45:52.659Z,102159.66
2023-05-07T09:48:25.249Z,102156.16
2023-05-07T09:50:59.714Z,102154.00
2023-05-07T09:53:35.462Z,102162.72
2023-05-07T09:56:07.665Z,102150.63
2023-05-07T09:58:41.754Z,102162.97
2023-05-07T10:01:13.709Z,102158.19
2023-05-07T10:03:45.639Z,102158.34
2023-05-07T10:06:15.229Z,102161.72
2023-05-07T10:08:46.312Z,102160.22
2023-05-07T10:11:16.618Z,102161.47
2023-05-07T10:13:46.633Z,102159.03
2023-05-07T10:16:16.291Z,102158.56
2023-05-07T10:18:49.433Z,102157.72
2023-05-07T10:21:24.863Z,102151.03
2023-05-07T10:24:02.305Z,102156.16
2023-05-07T10:26:36.713Z,102156.63
2023-05-07T10:29:13.506Z,102158.13
2023-05-07T10:31:55.105Z,102162.31
2023-05-07T10:34:28.538Z,102159.34
2023-05-07T10:36:59.008Z,102158.81
2023-05-07T10:39:29.911Z,102157.78
2023-05-07T10:42:09.304Z,102160.78
2023-05-07T10:44:38.847Z,102154.22
2023-05-07T10:47:13.713Z,102143.88
2023-05-07T10:50:22.919Z,102152.59
2023-05-07T10:53:27.036Z,102141.50
2023-05-07T10:56:29.832Z,102149.75
2023-05-07T10:59:41.706Z,102144.06
2023-05-07T11:02:25.106Z,102141.34
2023-05-07T11:05:23.091Z,102133.13
2023-05-07T11:08:00.150Z,102144.22
2023-05-07T11:10:53.245Z,102141.84
2023-05-07T11:13:46.556Z,102146.56
2023-05-07T11:16:39.761Z,102135.06
2023-05-07T11:19:52.182Z,102143.81
2023-05-07T11:22:41.765Z,102132.91
2023-05-07T11:25:23.825Z,102146.88
2023-05-07T11:28:05.715Z,102140.97
2023-05-07T11:30:37.200Z,102138.50
2023-05-07T11:33:08.731Z,102128.19
2023-05-07T11:35:38.620Z,102138.91
2023-05-07T11:38:10.621Z,102137.78
2023-05-07T11:40:51.912Z,102139.47
2023-05-07T11:43:21.236Z,102133.53
2023-05-07T11:45:52.123Z,102126.25
2023-05-07T11:48:23.017Z,102128.41
2023-05-07T11:50:56.243Z,102116.56
2023-05-07T11:53:28.018Z,102113.78
2023-05-07T11:55:58.170Z,102112.09
2023-05-07T11:58:27.963Z,102102.03
2023-05-07T12:00:58.447Z,102112.25
2023-05-07T12:03:29.782Z,102107.88
2023-05-07T12:06:01.820Z,102107.31
2023-05-07T12:08:30.890Z,102109.97
2023-05-07T12:11:00.371Z,102108.78
2023-05-07T12:13:29.527Z,102105.78
2023-05-07T12:16:00.173Z,102101.44
2023-05-07T12:18:29.832Z,102104.28
2023-05-07T12:20:59.654Z,102107.97
2023-05-07T12:23:28.897Z,102107.88
2023-05-07T12:25:58.143Z,102102.41
2023-05-07T12:28:27.354Z,102110.34
2023-05-07T12:30:57.541Z,102111.50
2023-05-07T12:33:29.470Z,102103.19
2023-05-07T12:35:58.771Z,102104.75
2023-05-07T12:38:27.839Z,102109.72
2023-05-07T12:40:57.551Z,102106.94
2023-05-07T12:43:28.541Z,102108.78
2023-05-07T12:45:59.029Z,102114.19
2023-05-07T12:48:29.479Z,102110.84
2023-05-07T12:50:59.739Z,102114.19
2023-05-07T12:53:30.161Z,102105.94
2023-05-07T12:56:00.565Z,102107.75
2023-05-07T12:58:31.314Z,102098.91
2023-05-07T13:01:02.553Z,102095.22
2023-05-07T13:03:35.262Z,102104.75
2023-05-07T13:06:06.915Z,102106.13
2023-05-07T13:08:38.442Z,102104.94
2023-05-07T13:11:09.511Z,102096.41
2023-05-07T13:13:40.299Z,102093.63
2023-05-07T13:16:11.021Z,102090.34
2023-05-07T13:18:44.725Z,102092.84
2023-05-07T13:21:15.065Z,102087.03
2023-05-07T13:23:44.113Z,102089.78
2023-05-07T13:26:25.710Z,102097.94
2023-05-07T13:28:56.096Z,102087.94
2023-05-07T13:31:25.499Z,102077.19
2023-05-07T13:33:57.260Z,102090.41
2023-05-07T13:36:26.477Z,102087.06
2023-05-07T13:38:56.659Z,102082.00
2023-05-07T13:41:29.436Z,102081.06
2023-05-07T13:43:59.582Z,102078.59
2023-05-07T13:46:31.167Z,102087.25
2023-05-07T13:49:03.365Z,102081.88
2023-05-07T13:51:33.080Z,102086.47
2023-05-07T13:54:02.790Z,102075.44
2023-05-07T13:56:33.570Z,102077.13
2023-05-07T13:59:03.854Z,102076.38
2023-05-07T14:01:35.066Z,102079.78
2023-05-07T14:04:07.428Z,102084.13
2023-05-07T14:06:40.043Z,102071.41
2023-05-07T14:09:09.129Z,102067.72
2023-05-07T14:11:38.203Z,102082.44
2023-05-07T14:14:07.853Z,102080.63
2023-05-07T14:16:37.006Z,102070.56
2023-05-07T14:19:07.449Z,102066.41
2023-05-07T14:21:36.538Z,102078.50
2023-05-07T14:24:06.314Z,102085.56
2023-05-07T14:26:35.520Z,102076.47
2023-05-07T14:29:04.871Z,102090.66
2023-05-07T14:31:34.485Z,102086.31
2023-05-07T14:34:03.692Z,102073.81
2023-05-07T14:36:34.100Z,102064.78
2023-05-07T14:39:03.409Z,102065.06
2023-05-07T14:41:34.109Z,102078.94
2023-05-07T14:44:04.930Z,102066.06
2023-05-07T14:46:34.034Z,102076.34
2023-05-07T14:49:03.844Z,102076.47
2023-05-07T14:51:34.300Z,102078.31
2023-05-07T14:54:04.237Z,102085.31
2023-05-07T14:56:33.353Z,102079.28
2023-05-07T14:59:02.476Z,102081.31
2023-05-07T15:01:31.853Z,102071.31
2023-05-07T15:04:01.687Z,102071.28
2023-05-07T15:06:30.996Z,102070.91
2023-05-07T15:09:01.710Z,102074.66
2023-05-07T15:11:30.895Z,102084.13
2023-05-07T15:14:00.020Z,102072.94
2023-05-07T15:16:29.283Z,102078.44
2023-05-07T15:18:58.586Z,102074.03
2023-05-07T15:21:28.684Z,102079.75
2023-05-07T15:23:57.819Z,102085.47
2023-05-07T15:26:28.353Z,102082.16
2023-05-07T15:28:58.279Z,102080.41
2023-05-07T15:31:27.714Z,102080.66
2023-05-07T15:33:57.407Z,102088.09
2023-05-07T15:36:26.526Z,102080.13
2023-05-07T15:38:55.704Z,102076.28
2023-05-07T15:41:24.917Z,102077.69
2023-05-07T15:43:55.535Z,102087.09
2023-05-07T15:46:26.432Z,102075.91
2023-05-07T15:48:56.560Z,102080.75
2023-05-07T15:51:25.935Z,102078.88
2023-05-07T15:53:55.078Z,102077.84
2023-05-07T15:56:25.186Z,102070.16
2023-05-07T15:58:55.910Z,102080.66
2023-05-07T16:01:26.013Z,102080.47
2023-05-07T16:03:55.407Z,102084.56
2023-05-07T16:06:24.617Z,102086.41
2023-05-07T16:08:53.664Z,102083.84
2023-05-07T16:11:22.836Z,102083.56
2023-05-07T16:13:51.916Z,102084.53
2023-05-07T16:16:22.471Z,102077.00
2023-05-07T16:18:51.577Z,102075.44
2023-05-07T16:21:20.764Z,102075.78
2023-05-07T16:23:50.748Z,102072.94
2023-05-07T16:26:20.169Z,102076.94
2023-05-07T16:28:49.669Z,102080.66
2023-05-07T16:31:19.518Z,102075.72
2023-05-07T16:33:50.384Z,102082.16
2023-05-07T16:36:19.826Z,102081.97
2023-05-07T16:38:49.346Z,102079.00
2023-05-07T16:41:18.922Z,102078.44
2023-05-07T16:43:48.009Z,102082.50
2023-05-07T16:46:17.575Z,102080.63
2023-05-07T16:48:46.797Z,102086.66
2023-05-07T16:51:17.268Z,102082.69
2023-05-07T16:53:46.570Z,102083.09
2023-05-07T16:56:15.765Z,102089.19
2023-05-07T16:58:45.027Z,102084.47
2023-05-07T17:01:15.295Z,102083.19
2023-05-07T17:03:44.510Z,102073.13
2023-05-07T17:06:15.222Z,102075.22
2023-05-07T17:08:45.996Z,102081.84
2023-05-07T17:11:15.138Z,102084.47
2023-05-07T17:13:44.364Z,102081.78
2023-05-07T17:16:13.578Z,102075.28
2023-05-07T17:18:43.009Z,102076.75
2023-05-07T17:21:12.114Z,102075.19
2023-05-07T17:23:41.230Z,102073.50
2023-05-07T17:26:15.313Z,102080.09
2023-05-07T17:28:44.683Z,102085.28
2023-05-07T17:31:13.866Z,102087.28
2023-05-07T17:33:43.089Z,102083.28
2023-05-07T17:36:12.241Z,102084.84
2023-05-07T17:38:41.314Z,102083.94
2023-05-07T17:41:10.435Z,102085.91
2023-05-07T17:43:40.960Z,102087.56
2023-05-07T17:46:10.611Z,102089.38
2023-05-07T17:48:39.707Z,102094.28
2023-05-07T17:51:08.753Z,102092.81
2023-05-07T17:53:37.880Z,102090.84
2023-05-07T17:56:07.073Z,102099.50
2023-05-07T17:58:46.863Z,102094.56
2023-05-07T18:01:26.921Z,102096.41
2023-05-07T18:03:56.419Z,102101.19
2023-05-07T18:06:25.861Z,102106.25
2023-05-07T18:08:55.319Z,102104.81
2023-05-07T18:11:25.178Z,102105.19
2023-05-07T18:13:54.439Z,102102.63
2023-05-07T18:16:23.703Z,102112.50
2023-05-07T18:18:55.547Z,102105.44
2023-05-07T18:21:24.766Z,102117.53
2023-05-07T18:23:53.903Z,102112.72
2023-05-07T18:26:23.029Z,102112.38
2023-05-07T18:28:52.162Z,102117.66
2023-05-07T18:31:21.607Z,102126.38
2023-05-07T18:33:55.901Z,102127.94
2023-05-07T18:36:27.022Z,102127.66
2023-05-07T18:38:56.118Z,102128.97
2023-05-07T18:41:25.249Z,102135.41
2023-05-07T18:43:54.435Z,102128.69
2023-05-07T18:46:23.651Z,102138.38
2023-05-07T18:48:54.922Z,102140.44
2023-05-07T18:51:24.123Z,102137.31
2023-05-07T18:53:53.192Z,102141.88
2023-05-07T18:56:22.251Z,102144.38
2023-05-07T18:58:51.348Z,102139.53
2023-05-07T19:01:20.548Z,102143.97
2023-05-07T19:03:49.884Z,102149.97
2023-05-07T19:06:21.226Z,102147.78
2023-05-07T19:08:50.434Z,102155.16
2023-05-07T19:11:19.687Z,102159.63
2023-05-07T19:13:48.746Z,102162.91
2023-05-07T19:16:18.004Z,102166.56
2023-05-07T19:18:47.212Z,102177.34
2023-05-07T19:21:16.350Z,102176.97
2023-05-07T19:23:46.751Z,102176.41
2023-05-07T19:26:15.855Z,102179.53
2023-05-07T19:28:45.895Z,102183.09
2023-05-07T19:31:21.402Z,102192.28
2023-05-07T19:33:50.664Z,102196.31
2023-05-07T19:36:19.945Z,102192.63
2023-05-07T19:38:53.074Z,102200.72
2023-05-07T19:41:22.986Z,102206.28
2023-05-07T19:43:52.076Z,102213.06
2023-05-07T19:46:21.270Z,102212.25
2023-05-07T19:48:50.528Z,102210.88
2023-05-07T19:51:19.617Z,102202.75
2023-05-07T19:53:50.095Z,102217.13
2023-05-07T19:56:19.169Z,102213.44
2023-05-07T19:58:48.381Z,102213.53
2023-05-07T20:01:17.530Z,102220.41
2023-05-07T20:03:47.292Z,102228.88
2023-05-07T20:06:16.435Z,102224.66
2023-05-07T20:08:46.096Z,102224.22
2023-05-07T20:11:16.562Z,102224.72
2023-05-07T20:13:45.686Z,102226.81
2023-05-07T20:16:14.764Z,102228.97
2023-05-07T20:18:43.915Z,102230.66
2023-05-07T20:21:13.220Z,102234.50
2023-05-07T20:23:42.277Z,102233.44
2023-05-07T20:26:11.422Z,102237.75
2023-05-07T20:28:41.861Z,102235.06
2023-05-07T20:31:10.940Z,102236.59
2023-05-07T20:33:40.909Z,102251.44
2023-05-07T20:36:10.178Z,102245.09
2023-05-07T20:38:39.323Z,102253.34
2023-05-07T20:41:09.065Z,102253.63
2023-05-07T20:43:38.608Z,102254.00
2023-05-07T20:46:09.185Z,102256.72
2023-05-07T20:48:38.426Z,102259.25
2023-05-07T20:51:10.336Z,102262.97
2023-05-07T20:53:40.592Z,102262.16
2023-05-07T20:56:09.775Z,102267.41
2023-05-07T20:58:38.864Z,102265.72
2023-05-07T21:01:09.532Z,102265.16
2023-05-07T21:03:38.816Z,102271.69
2023-05-07T21:06:08.042Z,102262.25
2023-05-07T21:08:37.106Z,102268.72
2023-05-07T21:11:06.390Z,102263.75
2023-05-07T21:13:35.578Z,102274.50
2023-05-07T21:16:04.885Z,102268.22
2023-05-07T21:18:35.440Z,102271.63
2023-05-07T21:21:09.270Z,102269.19
2023-05-07T21:23:38.716Z,102263.56
2023-05-07T21:26:07.778Z,102268.13
2023-05-07T21:28:36.836Z,102268.91
2023-05-07T21:31:05.950Z,102269.25
2023-05-07T21:33:36.521Z,102267.13
2023-05-07T21:36:06.225Z,102273.56
2023-05-07T21:38:35.297Z,102274.72
2023-05-07T21:41:04.675Z,102274.81
2023-05-07T21:43:34.046Z,102279.75
2023-05-07T21:46:07.263Z,102270.78
2023-05-07T21:48:37.962Z,102274.25
2023-05-07T21:51:08.575Z,102270.19
2023-05-07T21:53:37.894Z,102282.84
2023-05-07T21:56:07.498Z,102281.91
2023-05-07T21:58:36.612Z,102279.56
2023-05-07T22:01:06.128Z,102283.81
2023-05-07T22:03:35.396Z,102290.63
2023-05-07T22:06:06.354Z,102291.66
2023-05-07T22:08:35.549Z,102287.25
2023-05-07T22:11:04.711Z,102299.16
2023-05-07T22:13:33.808Z,102293.25
2023-05-07T22:16:02.923Z,102296.06
2023-05-07T22:18:32.068Z,102301.13
2023-05-07T22:21:01.199Z,102300.91
2023-05-07T22:23:31.768Z,102303.38
2023-05-07T22:26:00.819Z,102307.47
2023-05-07T22:28:29.843Z,102301.13
2023-05-07T22:30:58.890Z,102311.72
2023-05-07T22:33:27.970Z,102310.97
2023-05-07T22:35:57.167Z,102314.63
2023-05-07T22:38:26.383Z,102319.50
2023-05-07T22:40:56.972Z,102318.47
2023-05-07T22:43:26.067Z,102313.88
2023-05-07T22:46:00.976Z,102325.03
2023-05-07T22:48:30.494Z,102327.44
2023-05-07T22:50:59.607Z,102324.19
2023-05-07T22:53:28.663Z,102329.13
2023-05-07T22:55:59.490Z,102336.81
2023-05-07T22:58:28.521Z,102331.28
2023-05-07T23:00:57.613Z,102333.81
2023-05-07T23:03:26.852Z,102334.31
2023-05-07T23:05:56.003Z,102336.53
2023-05-07T23:08:26.298Z,102338.56
2023-05-07T23:10:55.482Z,102338.19
2023-05-07T23:13:25.951Z,102335.63
2023-05-07T23:15:55.046Z,102340.75
2023-05-07T23:18:24.130Z,102341.28
2023-05-07T23:20:53.184Z,102337.16
2023-05-07T23:23:22.310Z,102331.72
2023-05-07T23:25:53.343Z,102336.81
2023-05-07T23:28:22.416Z,102339.38
2023-05-07T23:30:52.821Z,102337.69
2023-05-07T23:33:21.910Z,102338.91
2023-05-07T23:35:51.047Z,102348.94
2023-05-07T23:38:20.076Z,102345.50
2023-05-07T23:40:49.130Z,102348.69
2023-05-07T23:43:18.153Z,102351.41
2023-05-07T23:45:47.283Z,102353.81
2023-05-07T23:48:17.933Z,102355.03
2023-05-07T23:50:47.205Z,102359.69
2023-05-07T23:53:16.266Z,102355.97
2023-05-07T23:55:45.369Z,102361.28
2023-05-07T23:58:14.506Z,102356.28
